sensor_id;sensor_type;location;lat;lon;timestamp;temperature;humidity
27707;DHT22;36332;51.384;0.040;2022-07-29T00:01:56;16.60;99.90
27707;DHT22;36332;51.384;0.040;2022-07-29T00:04:24;16.50;99.90
27707;DHT22;36332;51.384;0.040;2022-07-29T00:06:55;16.50;99.90
27707;DHT22;36332;51.384;0.040;2022-07-29T00:09:23;16.50;99.90
27707;DHT22;36332;51.384;0.040;2022-07-29T00:11:52;16.40;99.90
27707;DHT22;36332;51.384;0.040;2022-07-29T00:14:20;16.40;99.90
27707;DHT22;36332;51.384;0.040;2022-07-29T00:16:48;16.40;99.90
27707;DHT22;36332;51.384;0.040;2022-07-29T00:19:16;16.40;99.90
27707;DHT22;36332;51.384;0.040;2022-07-29T00:21:43;16.40;99.90
27707;DHT22;36332;51.384;0.040;2022-07-29T00:24:12;16.30;99.90
27707;DHT22;36332;51.384;0.040;2022-07-29T00:26:40;16.30;99.90
27707;DHT22;36332;51.384;0.040;2022-07-29T00:29:08;16.20;99.90
27707;DHT22;36332;51.384;0.040;2022-07-29T00:31:56;16.20;99.90
27707;DHT22;36332;51.384;0.040;2022-07-29T00:34:24;16.20;99.90
27707;DHT22;36332;51.384;0.040;2022-07-29T00:37:14;16.10;99.90
27707;DHT22;36332;51.384;0.040;2022-07-29T00:39:42;16.10;99.90
27707;DHT22;36332;51.384;0.040;2022-07-29T00:42:10;16.20;99.90
27707;DHT22;36332;51.384;0.040;2022-07-29T00:44:41;16.20;99.90
27707;DHT22;36332;51.384;0.040;2022-07-29T00:47:10;16.20;99.90
27707;DHT22;36332;51.384;0.040;2022-07-29T00:49:40;16.10;99.90
27707;DHT22;36332;51.384;0.040;2022-07-29T00:52:11;16.20;99.90
27707;DHT22;36332;51.384;0.040;2022-07-29T00:54:43;16.20;99.90
27707;DHT22;36332;51.384;0.040;2022-07-29T00:57:11;16.20;99.90
27707;DHT22;36332;51.384;0.040;2022-07-29T00:59:39;16.20;99.90
27707;DHT22;36332;51.384;0.040;2022-07-29T01:02:07;16.20;99.90
27707;DHT22;36332;51.384;0.040;2022-07-29T01:04:35;16.20;99.90
27707;DHT22;36332;51.384;0.040;2022-07-29T01:07:04;16.20;99.90
27707;DHT22;36332;51.384;0.040;2022-07-29T01:09:32;16.20;99.90
27707;DHT22;36332;51.384;0.040;2022-07-29T01:12:27;16.20;99.90
27707;DHT22;36332;51.384;0.040;2022-07-29T01:14:56;16.20;99.90
27707;DHT22;36332;51.384;0.040;2022-07-29T01:32:15;16.10;99.90
27707;DHT22;36332;51.384;0.040;2022-07-29T01:35:11;16.10;99.90
27707;DHT22;36332;51.384;0.040;2022-07-29T01:37:59;16.10;99.90
27707;DHT22;36332;51.384;0.040;2022-07-29T01:40:40;16.00;99.90
27707;DHT22;36332;51.384;0.040;2022-07-29T01:43:14;16.00;99.90
27707;DHT22;36332;51.384;0.040;2022-07-29T01:45:51;15.90;99.90
27707;DHT22;36332;51.384;0.040;2022-07-29T01:48:31;15.80;99.90
27707;DHT22;36332;51.384;0.040;2022-07-29T01:51:07;15.70;99.90
27707;DHT22;36332;51.384;0.040;2022-07-29T01:53:42;15.70;99.90
27707;DHT22;36332;51.384;0.040;2022-07-29T01:56:12;15.60;99.90
27707;DHT22;36332;51.384;0.040;2022-07-29T01:58:43;15.60;99.90
27707;DHT22;36332;51.384;0.040;2022-07-29T02:01:12;15.50;99.90
27707;DHT22;36332;51.384;0.040;2022-07-29T02:03:43;15.50;99.90
27707;DHT22;36332;51.384;0.040;2022-07-29T02:06:13;15.50;99.90
27707;DHT22;36332;51.384;0.040;2022-07-29T02:08:41;15.50;99.90
27707;DHT22;36332;51.384;0.040;2022-07-29T02:11:09;15.60;99.90
27707;DHT22;36332;51.384;0.040;2022-07-29T02:13:38;15.60;99.90
27707;DHT22;36332;51.384;0.040;2022-07-29T02:16:07;15.60;99.90
27707;DHT22;36332;51.384;0.040;2022-07-29T02:18:37;15.60;99.90
27707;DHT22;36332;51.384;0.040;2022-07-29T02:21:07;15.70;99.90
27707;DHT22;36332;51.384;0.040;2022-07-29T02:23:43;15.70;99.90
27707;DHT22;36332;51.384;0.040;2022-07-29T02:26:20;15.70;99.90
27707;DHT22;36332;51.384;0.040;2022-07-29T02:28:50;15.70;99.90
27707;DHT22;36332;51.384;0.040;2022-07-29T02:31:21;15.50;99.90
27707;DHT22;36332;51.384;0.040;2022-07-29T02:33:53;15.60;99.90
27707;DHT22;36332;51.384;0.040;2022-07-29T02:36:22;15.50;99.90
27707;DHT22;36332;51.384;0.040;2022-07-29T02:38:51;15.50;99.90
27707;DHT22;36332;51.384;0.040;2022-07-29T02:41:24;15.50;99.90
27707;DHT22;36332;51.384;0.040;2022-07-29T02:44:16;15.40;99.90
27707;DHT22;36332;51.384;0.040;2022-07-29T02:52:11;15.10;99.90
27707;DHT22;36332;51.384;0.040;2022-07-29T02:54:53;15.00;99.90
27707;DHT22;36332;51.384;0.040;2022-07-29T02:59:58;14.90;99.90
27707;DHT22;36332;51.384;0.040;2022-07-29T03:02:27;14.80;99.90
27707;DHT22;36332;51.384;0.040;2022-07-29T03:04:59;14.80;99.90
27707;DHT22;36332;51.384;0.040;2022-07-29T03:07:29;14.70;99.90
27707;DHT22;36332;51.384;0.040;2022-07-29T03:09:58;14.70;99.90
27707;DHT22;36332;51.384;0.040;2022-07-29T03:12:26;14.70;99.90
27707;DHT22;36332;51.384;0.040;2022-07-29T03:14:55;14.60;99.90
27707;DHT22;36332;51.384;0.040;2022-07-29T03:17:23;14.60;99.90
27707;DHT22;36332;51.384;0.040;2022-07-29T03:19:52;14.50;99.90
27707;DHT22;36332;51.384;0.040;2022-07-29T03:22:21;14.50;99.90
27707;DHT22;36332;51.384;0.040;2022-07-29T03:24:52;14.50;99.90
27707;DHT22;36332;51.384;0.040;2022-07-29T03:27:20;14.40;99.90
27707;DHT22;36332;51.384;0.040;2022-07-29T03:29:47;14.40;99.90
27707;DHT22;36332;51.384;0.040;2022-07-29T03:32:17;14.40;99.90
27707;DHT22;36332;51.384;0.040;2022-07-29T03:34:51;14.40;99.90
27707;DHT22;36332;51.384;0.040;2022-07-29T03:37:19;14.30;99.90
27707;DHT22;36332;51.384;0.040;2022-07-29T03:39:49;14.30;99.90
27707;DHT22;36332;51.384;0.040;2022-07-29T03:42:21;14.20;99.90
27707;DHT22;36332;51.384;0.040;2022-07-29T03:44:51;14.20;99.90
27707;DHT22;36332;51.384;0.040;2022-07-29T03:47:23;14.10;99.90
27707;DHT22;36332;51.384;0.040;2022-07-29T03:50:15;14.00;99.90
27707;DHT22;36332;51.384;0.040;2022-07-29T03:52:43;13.90;99.90
27707;DHT22;36332;51.384;0.040;2022-07-29T03:55:14;13.90;99.90
27707;DHT22;36332;51.384;0.040;2022-07-29T03:57:43;13.80;99.90
27707;DHT22;36332;51.384;0.040;2022-07-29T04:00:12;13.80;99.90
27707;DHT22;36332;51.384;0.040;2022-07-29T04:02:41;13.70;99.90
27707;DHT22;36332;51.384;0.040;2022-07-29T04:05:13;13.70;99.90
27707;DHT22;36332;51.384;0.040;2022-07-29T04:07:45;13.70;99.90
27707;DHT22;36332;51.384;0.040;2022-07-29T04:10:16;13.70;99.90
27707;DHT22;36332;51.384;0.040;2022-07-29T04:12:58;13.70;99.90
27707;DHT22;36332;51.384;0.040;2022-07-29T04:15:27;13.60;99.90
27707;DHT22;36332;51.384;0.040;2022-07-29T04:17:59;13.60;99.90
27707;DHT22;36332;51.384;0.040;2022-07-29T04:20:27;13.60;99.90
27707;DHT22;36332;51.384;0.040;2022-07-29T04:22:55;13.60;99.90
27707;DHT22;36332;51.384;0.040;2022-07-29T04:25:22;13.60;99.90
27707;DHT22;36332;51.384;0.040;2022-07-29T04:27:50;13.60;99.90
27707;DHT22;36332;51.384;0.040;2022-07-29T04:30:31;13.60;99.90
27707;DHT22;36332;51.384;0.040;2022-07-29T04:33:04;13.70;99.90
27707;DHT22;36332;51.384;0.040;2022-07-29T04:35:37;13.60;99.90
27707;DHT22;36332;51.384;0.040;2022-07-29T04:38:16;13.60;99.90
27707;DHT22;36332;51.384;0.040;2022-07-29T04:40:44;13.60;99.90
27707;DHT22;36332;51.384;0.040;2022-07-29T04:43:16;13.70;99.90
27707;DHT22;36332;51.384;0.040;2022-07-29T04:45:49;13.70;99.90
27707;DHT22;36332;51.384;0.040;2022-07-29T04:48:17;13.70;99.90
27707;DHT22;36332;51.384;0.040;2022-07-29T04:53:13;13.70;99.90
27707;DHT22;36332;51.384;0.040;2022-07-29T04:55:43;13.70;99.90
27707;DHT22;36332;51.384;0.040;2022-07-29T04:58:12;13.70;99.90
27707;DHT22;36332;51.384;0.040;2022-07-29T05:00:40;13.70;99.90
27707;DHT22;36332;51.384;0.040;2022-07-29T05:03:08;13.80;99.90
27707;DHT22;36332;51.384;0.040;2022-07-29T05:05:35;13.70;99.90
27707;DHT22;36332;51.384;0.040;2022-07-29T05:08:03;13.80;99.90
27707;DHT22;36332;51.384;0.040;2022-07-29T05:10:31;13.80;99.90
27707;DHT22;36332;51.384;0.040;2022-07-29T05:13:00;13.90;99.90
27707;DHT22;36332;51.384;0.040;2022-07-29T05:15:27;13.90;99.90
27707;DHT22;36332;51.384;0.040;2022-07-29T05:17:55;13.90;99.90
27707;DHT22;36332;51.384;0.040;2022-07-29T05:20:24;13.90;99.90
27707;DHT22;36332;51.384;0.040;2022-07-29T05:22:56;14.00;99.90
27707;DHT22;36332;51.384;0.040;2022-07-29T05:25:28;14.20;99.90
27707;DHT22;36332;51.384;0.040;2022-07-29T05:28:11;14.10;99.90
27707;DHT22;36332;51.384;0.040;2022-07-29T05:30:39;14.30;99.90
27707;DHT22;36332;51.384;0.040;2022-07-29T05:33:07;14.30;99.90
27707;DHT22;36332;51.384;0.040;2022-07-29T05:35:57;14.50;99.90
27707;DHT22;36332;51.384;0.040;2022-07-29T05:38:27;14.60;99.90
27707;DHT22;36332;51.384;0.040;2022-07-29T05:40:57;14.70;99.90
27707;DHT22;36332;51.384;0.040;2022-07-29T05:43:29;14.70;99.90
27707;DHT22;36332;51.384;0.040;2022-07-29T05:46:00;14.90;99.90
27707;DHT22;36332;51.384;0.040;2022-07-29T05:48:28;15.00;99.90
27707;DHT22;36332;51.384;0.040;2022-07-29T05:50:56;15.20;99.90
27707;DHT22;36332;51.384;0.040;2022-07-29T05:53:23;15.40;99.90
27707;DHT22;36332;51.384;0.040;2022-07-29T05:55:51;15.60;99.90
27707;DHT22;36332;51.384;0.040;2022-07-29T05:58:19;15.80;99.90
27707;DHT22;36332;51.384;0.040;2022-07-29T06:00:47;15.90;99.90
27707;DHT22;36332;51.384;0.040;2022-07-29T06:03:15;16.10;99.90
27707;DHT22;36332;51.384;0.040;2022-07-29T06:05:43;16.30;99.90
27707;DHT22;36332;51.384;0.040;2022-07-29T06:08:10;16.50;99.90
27707;DHT22;36332;51.384;0.040;2022-07-29T06:10:38;16.80;99.90
27707;DHT22;36332;51.384;0.040;2022-07-29T06:15:33;17.20;99.90
27707;DHT22;36332;51.384;0.040;2022-07-29T06:18:01;17.60;99.90
27707;DHT22;36332;51.384;0.040;2022-07-29T06:20:30;17.70;99.90
27707;DHT22;36332;51.384;0.040;2022-07-29T06:22:59;17.80;99.90
27707;DHT22;36332;51.384;0.040;2022-07-29T06:25:27;18.10;99.90
27707;DHT22;36332;51.384;0.040;2022-07-29T06:28:02;18.10;99.90
27707;DHT22;36332;51.384;0.040;2022-07-29T06:30:30;18.30;99.90
27707;DHT22;36332;51.384;0.040;2022-07-29T06:32:58;18.40;99.90
27707;DHT22;36332;51.384;0.040;2022-07-29T06:35:28;18.50;99.90
27707;DHT22;36332;51.384;0.040;2022-07-29T06:38:09;18.60;99.90
27707;DHT22;36332;51.384;0.040;2022-07-29T06:40:57;18.70;99.90
27707;DHT22;36332;51.384;0.040;2022-07-29T06:43:33;18.90;99.90
27707;DHT22;36332;51.384;0.040;2022-07-29T06:46:18;19.00;99.90
27707;DHT22;36332;51.384;0.040;2022-07-29T06:48:49;19.40;99.90
27707;DHT22;36332;51.384;0.040;2022-07-29T06:51:18;19.50;99.90
27707;DHT22;36332;51.384;0.040;2022-07-29T06:53:51;19.50;99.90
27707;DHT22;36332;51.384;0.040;2022-07-29T06:56:30;19.70;99.90
27707;DHT22;36332;51.384;0.040;2022-07-29T06:59:05;19.80;99.90
27707;DHT22;36332;51.384;0.040;2022-07-29T07:01:32;20.00;99.90
27707;DHT22;36332;51.384;0.040;2022-07-29T07:04:00;20.20;99.90
27707;DHT22;36332;51.384;0.040;2022-07-29T07:06:31;20.40;99.90
27707;DHT22;36332;51.384;0.040;2022-07-29T07:08:59;20.60;99.90
27707;DHT22;36332;51.384;0.040;2022-07-29T07:11:27;20.70;99.90
27707;DHT22;36332;51.384;0.040;2022-07-29T07:13:54;20.90;99.90
27707;DHT22;36332;51.384;0.040;2022-07-29T07:16:29;21.00;99.90
27707;DHT22;36332;51.384;0.040;2022-07-29T07:18:57;21.00;99.90
27707;DHT22;36332;51.384;0.040;2022-07-29T07:21:24;21.10;99.90
27707;DHT22;36332;51.384;0.040;2022-07-29T07:23:55;21.30;99.90
27707;DHT22;36332;51.384;0.040;2022-07-29T07:26:22;21.40;99.90
27707;DHT22;36332;51.384;0.040;2022-07-29T07:28:50;21.40;99.90
27707;DHT22;36332;51.384;0.040;2022-07-29T07:31:19;21.40;99.90
27707;DHT22;36332;51.384;0.040;2022-07-29T07:33:48;21.40;99.90
27707;DHT22;36332;51.384;0.040;2022-07-29T07:36:16;21.30;99.90
27707;DHT22;36332;51.384;0.040;2022-07-29T07:38:45;21.30;99.90
27707;DHT22;36332;51.384;0.040;2022-07-29T07:41:14;21.10;99.90
27707;DHT22;36332;51.384;0.040;2022-07-29T07:43:41;21.00;99.90
27707;DHT22;36332;51.384;0.040;2022-07-29T07:46:09;20.70;99.90
27707;DHT22;36332;51.384;0.040;2022-07-29T07:48:40;20.70;99.90
27707;DHT22;36332;51.384;0.040;2022-07-29T07:51:08;20.60;99.90
27707;DHT22;36332;51.384;0.040;2022-07-29T07:53:36;20.60;99.90
27707;DHT22;36332;51.384;0.040;2022-07-29T07:56:04;20.70;99.90
27707;DHT22;36332;51.384;0.040;2022-07-29T07:58:38;20.70;99.90
27707;DHT22;36332;51.384;0.040;2022-07-29T08:01:06;20.90;99.90
27707;DHT22;36332;51.384;0.040;2022-07-29T08:03:35;21.00;99.90
27707;DHT22;36332;51.384;0.040;2022-07-29T08:06:04;21.00;99.90
27707;DHT22;36332;51.384;0.040;2022-07-29T08:08:33;21.10;99.90
27707;DHT22;36332;51.384;0.040;2022-07-29T08:11:00;21.20;99.90
27707;DHT22;36332;51.384;0.040;2022-07-29T08:13:37;21.50;99.90
27707;DHT22;36332;51.384;0.040;2022-07-29T08:16:05;21.20;99.90
27707;DHT22;36332;51.384;0.040;2022-07-29T08:18:41;21.30;99.90
27707;DHT22;36332;51.384;0.040;2022-07-29T08:21:09;21.50;99.90
27707;DHT22;36332;51.384;0.040;2022-07-29T08:23:43;21.60;99.90
27707;DHT22;36332;51.384;0.040;2022-07-29T08:26:28;21.60;99.90
27707;DHT22;36332;51.384;0.040;2022-07-29T08:28:55;21.60;99.90
27707;DHT22;36332;51.384;0.040;2022-07-29T08:31:23;21.60;99.90
27707;DHT22;36332;51.384;0.040;2022-07-29T08:33:51;21.70;99.90
27707;DHT22;36332;51.384;0.040;2022-07-29T08:36:19;21.70;99.90
27707;DHT22;36332;51.384;0.040;2022-07-29T08:38:48;22.00;99.90
27707;DHT22;36332;51.384;0.040;2022-07-29T08:41:18;22.00;99.90
27707;DHT22;36332;51.384;0.040;2022-07-29T08:43:47;22.40;99.90
27707;DHT22;36332;51.384;0.040;2022-07-29T08:46:15;22.40;99.90
27707;DHT22;36332;51.384;0.040;2022-07-29T08:48:44;22.70;99.90
27707;DHT22;36332;51.384;0.040;2022-07-29T08:51:14;22.80;99.90
27707;DHT22;36332;51.384;0.040;2022-07-29T08:53:47;23.10;99.90
27707;DHT22;36332;51.384;0.040;2022-07-29T08:56:19;23.10;99.90
27707;DHT22;36332;51.384;0.040;2022-07-29T08:58:54;23.30;99.90
27707;DHT22;36332;51.384;0.040;2022-07-29T09:01:25;23.40;99.90
27707;DHT22;36332;51.384;0.040;2022-07-29T09:04:05;23.50;99.90
27707;DHT22;36332;51.384;0.040;2022-07-29T09:06:39;23.80;99.90
27707;DHT22;36332;51.384;0.040;2022-07-29T09:09:09;23.80;99.90
27707;DHT22;36332;51.384;0.040;2022-07-29T09:11:37;24.00;99.90
27707;DHT22;36332;51.384;0.040;2022-07-29T09:14:05;24.10;99.90
27707;DHT22;36332;51.384;0.040;2022-07-29T09:19:26;24.40;99.90
27707;DHT22;36332;51.384;0.040;2022-07-29T09:21:55;24.30;99.90
27707;DHT22;36332;51.384;0.040;2022-07-29T09:24:42;24.40;99.90
27707;DHT22;36332;51.384;0.040;2022-07-29T09:27:21;24.50;99.90
27707;DHT22;36332;51.384;0.040;2022-07-29T09:32:54;24.60;99.90
27707;DHT22;36332;51.384;0.040;2022-07-29T09:35:24;24.90;99.90
27707;DHT22;36332;51.384;0.040;2022-07-29T09:37:52;25.00;99.90
27707;DHT22;36332;51.384;0.040;2022-07-29T09:40:26;25.00;99.90
27707;DHT22;36332;51.384;0.040;2022-07-29T09:42:54;25.20;99.90
27707;DHT22;36332;51.384;0.040;2022-07-29T09:45:33;25.40;99.90
27707;DHT22;36332;51.384;0.040;2022-07-29T09:48:14;25.60;99.90
27707;DHT22;36332;51.384;0.040;2022-07-29T09:50:44;25.80;99.90
27707;DHT22;36332;51.384;0.040;2022-07-29T09:53:12;25.90;98.70
27707;DHT22;36332;51.384;0.040;2022-07-29T09:55:56;25.90;99.50
27707;DHT22;36332;51.384;0.040;2022-07-29T09:58:24;26.10;98.40
27707;DHT22;36332;51.384;0.040;2022-07-29T10:00:53;26.10;98.60
27707;DHT22;36332;51.384;0.040;2022-07-29T10:03:22;26.30;97.10
27707;DHT22;36332;51.384;0.040;2022-07-29T10:06:11;26.30;97.60
27707;DHT22;36332;51.384;0.040;2022-07-29T10:08:41;26.50;96.30
27707;DHT22;36332;51.384;0.040;2022-07-29T10:11:11;26.70;95.20
27707;DHT22;36332;51.384;0.040;2022-07-29T10:13:41;26.80;94.40
27707;DHT22;36332;51.384;0.040;2022-07-29T10:16:09;27.70;95.00
27707;DHT22;36332;51.384;0.040;2022-07-29T10:18:41;26.90;94.90
27707;DHT22;36332;51.384;0.040;2022-07-29T10:21:11;26.80;93.70
27707;DHT22;36332;51.384;0.040;2022-07-29T10:24:00;26.70;94.10
27707;DHT22;36332;51.384;0.040;2022-07-29T10:26:29;26.70;93.00
27707;DHT22;36332;51.384;0.040;2022-07-29T10:28:57;26.80;93.10
27707;DHT22;36332;51.384;0.040;2022-07-29T10:31:39;26.90;92.60
27707;DHT22;36332;51.384;0.040;2022-07-29T10:40:26;27.00;91.40
27707;DHT22;36332;51.384;0.040;2022-07-29T10:43:21;27.00;90.70
27707;DHT22;36332;51.384;0.040;2022-07-29T10:45:57;26.90;91.30
27707;DHT22;36332;51.384;0.040;2022-07-29T10:48:26;27.10;91.10
27707;DHT22;36332;51.384;0.040;2022-07-29T10:51:04;27.20;90.90
27707;DHT22;36332;51.384;0.040;2022-07-29T10:53:52;27.40;90.30
27707;DHT22;36332;51.384;0.040;2022-07-29T10:56:27;27.70;88.80
27707;DHT22;36332;51.384;0.040;2022-07-29T11:07:14;27.90;85.80
27707;DHT22;36332;51.384;0.040;2022-07-29T11:09:43;27.90;87.30
27707;DHT22;36332;51.384;0.040;2022-07-29T11:31:46;28.50;77.50
27707;DHT22;36332;51.384;0.040;2022-07-29T11:37:13;28.60;74.80
27707;DHT22;36332;51.384;0.040;2022-07-29T11:40:07;28.40;74.70
27707;DHT22;36332;51.384;0.040;2022-07-29T11:42:38;28.50;75.40
27707;DHT22;36332;51.384;0.040;2022-07-29T11:45:17;28.50;75.70
27707;DHT22;36332;51.384;0.040;2022-07-29T11:48:05;28.60;74.20
27707;DHT22;36332;51.384;0.040;2022-07-29T11:50:53;28.70;75.50
27707;DHT22;36332;51.384;0.040;2022-07-29T11:53:21;29.00;75.00
27707;DHT22;36332;51.384;0.040;2022-07-29T11:55:54;29.20;74.30
27707;DHT22;36332;51.384;0.040;2022-07-29T11:58:25;29.50;70.70
27707;DHT22;36332;51.384;0.040;2022-07-29T12:00:55;29.80;69.70
27707;DHT22;36332;51.384;0.040;2022-07-29T12:03:26;29.80;71.70
27707;DHT22;36332;51.384;0.040;2022-07-29T12:06:14;30.20;67.50
27707;DHT22;36332;51.384;0.040;2022-07-29T12:09:09;30.40;68.90
27707;DHT22;36332;51.384;0.040;2022-07-29T12:11:41;30.40;69.00
27707;DHT22;36332;51.384;0.040;2022-07-29T12:14:44;30.70;68.10
27707;DHT22;36332;51.384;0.040;2022-07-29T12:17:29;31.20;66.10
27707;DHT22;36332;51.384;0.040;2022-07-29T12:20:06;31.40;65.50
27707;DHT22;36332;51.384;0.040;2022-07-29T12:22:37;31.60;62.50
27707;DHT22;36332;51.384;0.040;2022-07-29T12:25:08;31.90;62.50
27707;DHT22;36332;51.384;0.040;2022-07-29T12:28:01;32.10;61.90
27707;DHT22;36332;51.384;0.040;2022-07-29T12:30:44;32.30;63.50
27707;DHT22;36332;51.384;0.040;2022-07-29T12:33:27;32.90;59.80
27707;DHT22;36332;51.384;0.040;2022-07-29T12:35:57;33.00;61.10
27707;DHT22;36332;51.384;0.040;2022-07-29T12:38:34;33.20;61.30
27707;DHT22;36332;51.384;0.040;2022-07-29T12:41:03;33.40;59.90
27707;DHT22;36332;51.384;0.040;2022-07-29T12:43:31;33.50;59.30
27707;DHT22;36332;51.384;0.040;2022-07-29T12:46:13;33.70;58.80
27707;DHT22;36332;51.384;0.040;2022-07-29T12:48:42;33.90;56.50
27707;DHT22;36332;51.384;0.040;2022-07-29T12:53:41;34.00;56.70
27707;DHT22;36332;51.384;0.040;2022-07-29T12:56:15;34.40;54.80
27707;DHT22;36332;51.384;0.040;2022-07-29T13:01:42;34.80;54.80
27707;DHT22;36332;51.384;0.040;2022-07-29T13:04:10;34.90;55.20
27707;DHT22;36332;51.384;0.040;2022-07-29T13:06:43;35.10;54.90
27707;DHT22;36332;51.384;0.040;2022-07-29T13:09:16;35.30;53.00
27707;DHT22;36332;51.384;0.040;2022-07-29T13:11:47;35.10;53.60
27707;DHT22;36332;51.384;0.040;2022-07-29T13:14:32;34.70;53.50
27707;DHT22;36332;51.384;0.040;2022-07-29T13:19:38;32.80;54.00
27707;DHT22;36332;51.384;0.040;2022-07-29T13:22:09;32.00;55.40
27707;DHT22;36332;51.384;0.040;2022-07-29T13:24:57;31.30;56.30
27707;DHT22;36332;51.384;0.040;2022-07-29T13:27:31;31.10;56.30
27707;DHT22;36332;51.384;0.040;2022-07-29T13:30:05;30.70;56.80
27707;DHT22;36332;51.384;0.040;2022-07-29T13:32:33;30.80;57.20
27707;DHT22;36332;51.384;0.040;2022-07-29T13:35:06;31.50;56.70
27707;DHT22;36332;51.384;0.040;2022-07-29T13:37:35;31.70;57.50
27707;DHT22;36332;51.384;0.040;2022-07-29T13:40:07;33.20;54.40
27707;DHT22;36332;51.384;0.040;2022-07-29T13:42:35;33.60;55.50
27707;DHT22;36332;51.384;0.040;2022-07-29T13:45:04;34.60;51.90
27707;DHT22;36332;51.384;0.040;2022-07-29T13:47:32;35.10;52.60
27707;DHT22;36332;51.384;0.040;2022-07-29T13:50:03;35.20;49.60
27707;DHT22;36332;51.384;0.040;2022-07-29T13:52:34;36.10;49.20
27707;DHT22;36332;51.384;0.040;2022-07-29T13:55:03;36.70;49.90
27707;DHT22;36332;51.384;0.040;2022-07-29T13:57:31;36.70;50.20
27707;DHT22;36332;51.384;0.040;2022-07-29T13:59:59;37.10;49.40
27707;DHT22;36332;51.384;0.040;2022-07-29T14:02:26;37.30;48.20
27707;DHT22;36332;51.384;0.040;2022-07-29T14:04:54;37.80;48.20
27707;DHT22;36332;51.384;0.040;2022-07-29T14:07:23;38.30;47.50
27707;DHT22;36332;51.384;0.040;2022-07-29T14:09:50;38.40;45.10
27707;DHT22;36332;51.384;0.040;2022-07-29T14:12:18;37.80;44.60
27707;DHT22;36332;51.384;0.040;2022-07-29T14:17:18;36.60;46.10
27707;DHT22;36332;51.384;0.040;2022-07-29T14:19:47;36.00;46.50
27707;DHT22;36332;51.384;0.040;2022-07-29T14:22:15;35.40;47.00
27707;DHT22;36332;51.384;0.040;2022-07-29T14:24:47;35.50;46.30
27707;DHT22;36332;51.384;0.040;2022-07-29T14:27:15;36.00;46.00
27707;DHT22;36332;51.384;0.040;2022-07-29T14:29:45;36.30;46.90
27707;DHT22;36332;51.384;0.040;2022-07-29T14:32:16;36.80;44.80
27707;DHT22;36332;51.384;0.040;2022-07-29T14:34:47;37.40;44.90
27707;DHT22;36332;51.384;0.040;2022-07-29T14:37:15;37.50;44.50
27707;DHT22;36332;51.384;0.040;2022-07-29T14:39:42;37.50;45.20
27707;DHT22;36332;51.384;0.040;2022-07-29T14:42:11;37.90;42.90
27707;DHT22;36332;51.384;0.040;2022-07-29T14:44:43;38.30;44.20
27707;DHT22;36332;51.384;0.040;2022-07-29T14:47:13;38.90;42.10
27707;DHT22;36332;51.384;0.040;2022-07-29T14:49:40;39.00;43.30
27707;DHT22;36332;51.384;0.040;2022-07-29T14:52:08;39.10;41.50
27707;DHT22;36332;51.384;0.040;2022-07-29T14:54:35;39.40;40.90
27707;DHT22;36332;51.384;0.040;2022-07-29T14:57:03;39.50;42.10
27707;DHT22;36332;51.384;0.040;2022-07-29T14:59:31;39.70;41.90
27707;DHT22;36332;51.384;0.040;2022-07-29T15:01:58;40.00;40.80
27707;DHT22;36332;51.384;0.040;2022-07-29T15:04:27;40.60;39.70
27707;DHT22;36332;51.384;0.040;2022-07-29T15:06:54;40.90;40.70
27707;DHT22;36332;51.384;0.040;2022-07-29T15:09:22;41.20;38.80
27707;DHT22;36332;51.384;0.040;2022-07-29T15:11:50;41.40;38.40
27707;DHT22;36332;51.384;0.040;2022-07-29T15:14:17;41.30;39.50
27707;DHT22;36332;51.384;0.040;2022-07-29T15:16:46;40.50;38.40
27707;DHT22;36332;51.384;0.040;2022-07-29T15:19:14;39.90;39.20
27707;DHT22;36332;51.384;0.040;2022-07-29T15:21:42;39.30;40.20
27707;DHT22;36332;51.384;0.040;2022-07-29T15:24:16;39.00;40.70
27707;DHT22;36332;51.384;0.040;2022-07-29T15:26:45;39.00;39.30
27707;DHT22;36332;51.384;0.040;2022-07-29T15:29:16;39.10;39.40
27707;DHT22;36332;51.384;0.040;2022-07-29T15:31:44;39.00;40.40
27707;DHT22;36332;51.384;0.040;2022-07-29T15:34:12;38.00;40.30
27707;DHT22;36332;51.384;0.040;2022-07-29T15:36:40;38.00;40.90
27707;DHT22;36332;51.384;0.040;2022-07-29T15:39:20;37.00;41.40
27707;DHT22;36332;51.384;0.040;2022-07-29T15:41:48;36.70;41.70
27707;DHT22;36332;51.384;0.040;2022-07-29T15:44:16;36.20;41.80
27707;DHT22;36332;51.384;0.040;2022-07-29T15:46:45;36.10;42.60
27707;DHT22;36332;51.384;0.040;2022-07-29T15:49:38;34.90;43.60
27707;DHT22;36332;51.384;0.040;2022-07-29T15:52:19;34.70;44.30
27707;DHT22;36332;51.384;0.040;2022-07-29T15:54:54;34.00;44.50
27707;DHT22;36332;51.384;0.040;2022-07-29T15:57:28;33.40;44.70
27707;DHT22;36332;51.384;0.040;2022-07-29T15:59:59;33.10;45.80
27707;DHT22;36332;51.384;0.040;2022-07-29T16:02:34;32.30;46.10
27707;DHT22;36332;51.384;0.040;2022-07-29T16:05:03;36.30;49.50
27707;DHT22;36332;51.384;0.040;2022-07-29T16:07:36;31.20;47.20
27707;DHT22;36332;51.384;0.040;2022-07-29T16:10:05;30.80;48.10
27707;DHT22;36332;51.384;0.040;2022-07-29T16:17:37;29.90;49.30
27707;DHT22;36332;51.384;0.040;2022-07-29T16:20:06;29.70;49.90
27707;DHT22;36332;51.384;0.040;2022-07-29T16:25:02;29.40;50.90
27707;DHT22;36332;51.384;0.040;2022-07-29T16:27:30;29.40;51.20
27707;DHT22;36332;51.384;0.040;2022-07-29T16:30:05;29.10;51.40
27707;DHT22;36332;51.384;0.040;2022-07-29T16:32:36;29.00;51.50
27707;DHT22;36332;51.384;0.040;2022-07-29T16:35:05;32.70;53.80
27707;DHT22;36332;51.384;0.040;2022-07-29T16:37:33;28.90;51.80
27707;DHT22;36332;51.384;0.040;2022-07-29T16:40:04;29.00;52.00
27707;DHT22;36332;51.384;0.040;2022-07-29T16:42:34;29.10;51.90
27707;DHT22;36332;51.384;0.040;2022-07-29T16:45:16;29.20;51.30
27707;DHT22;36332;51.384;0.040;2022-07-29T16:47:48;29.20;51.30
27707;DHT22;36332;51.384;0.040;2022-07-29T16:50:16;30.90;52.60
27707;DHT22;36332;51.384;0.040;2022-07-29T16:52:44;29.70;51.30
27707;DHT22;36332;51.384;0.040;2022-07-29T16:57:42;29.70;51.10
27707;DHT22;36332;51.384;0.040;2022-07-29T17:00:10;29.70;51.30
27707;DHT22;36332;51.384;0.040;2022-07-29T17:02:38;29.60;52.70
27707;DHT22;36332;51.384;0.040;2022-07-29T17:05:07;29.60;54.70
27707;DHT22;36332;51.384;0.040;2022-07-29T17:07:35;29.30;55.10
27707;DHT22;36332;51.384;0.040;2022-07-29T17:10:03;29.10;55.80
27707;DHT22;36332;51.384;0.040;2022-07-29T17:12:35;29.00;56.60
27707;DHT22;36332;51.384;0.040;2022-07-29T17:15:04;28.90;57.10
27707;DHT22;36332;51.384;0.040;2022-07-29T17:17:32;24.60;55.10
27707;DHT22;36332;51.384;0.040;2022-07-29T17:20:07;29.00;58.20
27707;DHT22;36332;51.384;0.040;2022-07-29T17:22:36;28.90;58.10
27707;DHT22;36332;51.384;0.040;2022-07-29T17:27:32;28.60;58.50
27707;DHT22;36332;51.384;0.040;2022-07-29T17:30:00;28.50;58.80
27707;DHT22;36332;51.384;0.040;2022-07-29T17:32:28;28.40;59.20